Time;durP1;ratioP1;P1;durP2;ratioP2;P2;SDS_P1;SDS_P2;PMS_P1;PMS_P2;Temp;Humidity;BMP_temperature;BMP_pressure;BME280_temperature;BME280_humidity;BME280_pressure;Samples;Min_cycle;Max_cycle;Signal;HPM_P1;HPM_P2
2023/09/13 00:01:56;;;;;;;29.20;22.33;;;;;;;-148.88;100.00;-17125.47;5013411;28;20447;-75
2023/09/13 00:04:21;;;;;;;26.98;21.55;;;;;;;-148.88;100.00;-17125.47;5013036;28;20518;-75
2023/09/13 00:06:47;;;;;;;24.27;19.02;;;;;;;-148.88;100.00;-17125.47;5012881;28;20076;-74
2023/09/13 00:09:13;;;;;;;24.42;19.48;;;;;;;-148.88;100.00;-17125.47;5012975;28;20022;-74
2023/09/13 00:11:39;;;;;;;23.30;18.48;;;;;;;-148.88;100.00;-17125.47;5028243;28;20081;-74
2023/09/13 00:14:04;;;;;;;20.73;18.05;;;;;;;-148.88;100.00;-17125.47;5012701;28;20519;-74
2023/09/13 00:16:30;;;;;;;23.50;18.67;;;;;;;-148.88;100.00;-17125.47;5028106;28;20037;-74
2023/09/13 00:18:55;;;;;;;21.77;17.63;;;;;;;-148.88;100.00;-17125.47;5013084;28;20034;-74
2023/09/13 00:21:21;;;;;;;21.35;17.52;;;;;;;-148.88;100.00;-17125.47;5012820;28;20507;-74
2023/09/13 00:23:47;;;;;;;21.70;17.50;;;;;;;-148.88;100.00;-17125.47;5012722;28;20034;-74
2023/09/13 00:26:16;;;;;;;24.70;19.33;;;;;;;-148.88;100.00;-17125.47;5011419;28;20029;-74
2023/09/13 00:28:41;;;;;;;22.98;19.20;;;;;;;-148.88;100.00;-17125.47;5012730;28;20025;-74
2023/09/13 00:31:10;;;;;;;24.75;20.60;;;;;;;-148.88;100.00;-17125.47;5012660;28;20109;-75
2023/09/13 00:33:36;;;;;;;26.00;20.05;;;;;;;-148.88;100.00;-17125.47;5012634;28;20052;-74
2023/09/13 00:36:01;;;;;;;26.35;20.70;;;;;;;-148.88;100.00;-17125.47;5027873;28;20092;-74
2023/09/13 00:38:26;;;;;;;25.17;20.52;;;;;;;-148.88;100.00;-17125.47;5012697;28;20066;-74
2023/09/13 00:40:52;;;;;;;24.67;19.95;;;;;;;-148.88;100.00;-17125.47;5012596;28;20034;-75
2023/09/13 00:43:17;;;;;;;24.95;20.45;;;;;;;-148.88;100.00;-17125.47;5012531;28;20044;-74
2023/09/13 00:45:43;;;;;;;27.88;20.98;;;;;;;-148.88;100.00;-17125.47;5012775;28;20026;-74
2023/09/13 00:48:08;;;;;;;25.23;20.15;;;;;;;-148.88;100.00;-17125.47;5015460;28;20037;-74
2023/09/13 00:50:36;;;;;;;22.17;19.10;;;;;;;-148.88;100.00;-17125.47;5031565;28;20033;-74
2023/09/13 00:53:02;;;;;;;25.42;20.92;;;;;;;-148.88;100.00;-17125.47;5016353;28;20546;-74
2023/09/13 00:55:27;;;;;;;25.55;19.27;;;;;;;-148.88;100.00;-17125.47;5016412;28;20369;-75
2023/09/13 00:57:54;;;;;;;26.50;19.17;;;;;;;-148.88;100.00;-17125.47;5031455;28;20036;-74
2023/09/13 01:00:21;;;;;;;27.25;19.55;;;;;;;-148.88;100.00;-17125.47;5031548;28;20414;-74
2023/09/13 01:09:30;;;;;;;24.73;19.55;;;;;;;-148.88;100.00;-17125.47;5016342;28;20080;-74
2023/09/13 01:11:56;;;;;;;28.88;20.42;;;;;;;-148.88;100.00;-17125.47;5016664;28;20025;-73
2023/09/13 01:14:21;;;;;;;25.92;20.20;;;;;;;-148.88;100.00;-17125.47;5031220;28;20025;-74
2023/09/13 01:16:54;;;;;;;26.02;20.40;;;;;;;-148.88;100.00;-17125.47;5014710;28;20103;-74
2023/09/13 01:19:57;;;;;;;27.20;21.05;;;;;;;-148.88;100.00;-17125.47;5016101;28;20030;-74
2023/09/13 01:22:25;;;;;;;31.77;21.60;;;;;;;-148.88;100.00;-17125.47;5015859;28;20484;-73
2023/09/13 01:25:09;;;;;;;32.65;23.10;;;;;;;-148.88;100.00;-17125.47;5015840;28;20096;-73
2023/09/13 01:27:37;;;;;;;;;;;;;;;-148.88;100.00;-17125.47;5016160;28;20030;-73
2023/09/13 01:30:06;;;;;;;35.55;24.40;;;;;;;-148.88;100.00;-17125.47;5015822;28;19909;-74
2023/09/13 01:32:34;;;;;;;32.58;24.50;;;;;;;-148.88;100.00;-17125.47;5015659;28;20078;-73
2023/09/13 01:35:00;;;;;;;35.10;24.98;;;;;;;-148.88;100.00;-17125.47;5015653;28;20018;-73
2023/09/13 01:37:25;;;;;;;35.60;25.13;;;;;;;-148.88;100.00;-17125.47;5015672;28;20036;-74
2023/09/13 01:39:51;;;;;;;38.40;25.45;;;;;;;-148.88;100.00;-17125.47;5015501;28;20018;-73
2023/09/13 01:42:17;;;;;;;33.33;23.77;;;;;;;-148.88;100.00;-17125.47;5030694;28;20026;-74
2023/09/13 01:44:45;;;;;;;37.80;26.33;;;;;;;-148.88;100.00;-17125.47;5015487;28;20468;-74
2023/09/13 01:47:13;;;;;;;35.55;25.25;;;;;;;-148.88;100.00;-17125.47;5015470;28;20029;-74
2023/09/13 01:49:40;;;;;;;37.03;25.60;;;;;;;-148.88;100.00;-17125.47;5015541;28;20022;-74
2023/09/13 01:52:05;;;;;;;32.67;24.75;;;;;;;-148.88;100.00;-17125.47;5015696;28;20022;-74
2023/09/13 01:54:35;;;;;;;34.20;24.48;;;;;;;-148.88;100.00;-17125.47;5015519;28;20045;-74
2023/09/13 01:57:01;;;;;;;36.28;25.90;;;;;;;-148.88;100.00;-17125.47;5015278;28;20057;-73
2023/09/13 01:59:27;;;;;;;36.20;26.23;;;;;;;-148.88;100.00;-17125.47;5029556;28;20042;-74
2023/09/13 02:01:53;;;;;;;33.85;25.55;;;;;;;-148.88;100.00;-17125.47;5030439;28;20079;-73
2023/09/13 02:04:18;;;;;;;34.92;25.17;;;;;;;-148.88;100.00;-17125.47;5015453;28;20030;-73
2023/09/13 02:06:44;;;;;;;34.53;25.38;;;;;;;-148.88;100.00;-17125.47;5030167;28;20109;-74
2023/09/13 02:09:11;;;;;;;32.95;25.30;;;;;;;-148.88;100.00;-17125.47;5030216;28;20562;-74
2023/09/13 02:11:36;;;;;;;35.25;25.05;;;;;;;-148.88;100.00;-17125.47;5030464;28;20567;-73
2023/09/13 02:14:02;;;;;;;35.10;25.48;;;;;;;-148.88;100.00;-17125.47;5014741;28;20118;-73
2023/09/13 02:16:28;;;;;;;35.10;25.85;;;;;;;-148.88;100.00;-17125.47;5014808;28;20022;-74
2023/09/13 02:18:53;;;;;;;39.10;27.75;;;;;;;-148.88;100.00;-17125.47;5030035;28;20399;-74
2023/09/13 02:21:19;;;;;;;36.90;26.60;;;;;;;-148.88;100.00;-17125.47;5014778;28;20080;-73
2023/09/13 02:23:45;;;;;;;40.83;27.38;;;;;;;-148.88;100.00;-17125.47;5030033;28;20041;-74
2023/09/13 02:26:24;;;;;;;40.38;28.50;;;;;;;-148.88;100.00;-17125.47;5014632;28;20545;-74
2023/09/13 02:28:49;;;;;;;37.35;26.98;;;;;;;-148.88;100.00;-17125.47;5029963;28;20044;-75
2023/09/13 02:31:26;;;;;;;34.75;26.77;;;;;;;-148.88;100.00;-17125.47;5014695;28;20030;-73
2023/09/13 02:33:52;;;;;;;39.80;27.83;;;;;;;-148.88;100.00;-17125.47;5014846;28;20097;-74
2023/09/13 02:36:18;;;;;;;35.72;28.08;;;;;;;-148.88;100.00;-17125.47;5014496;28;20474;-74
2023/09/13 02:38:43;;;;;;;41.53;28.83;;;;;;;-148.88;100.00;-17125.47;5029813;28;20504;-74
2023/09/13 02:41:09;;;;;;;44.00;30.88;;;;;;;-148.88;100.00;-17125.47;5014407;28;20041;-74
2023/09/13 02:43:34;;;;;;;41.83;29.85;;;;;;;-148.88;100.00;-17125.47;5014447;28;20021;-74
2023/09/13 02:46:00;;;;;;;41.88;31.25;;;;;;;-148.88;100.00;-17125.47;5014294;28;20029;-74
2023/09/13 02:48:25;;;;;;;45.28;31.23;;;;;;;-148.88;100.00;-17125.47;5014200;28;20026;-74
2023/09/13 02:50:51;;;;;;;51.38;32.88;;;;;;;-148.88;100.00;-17125.47;5014521;28;20075;-74
2023/09/13 02:53:17;;;;;;;46.60;31.98;;;;;;;-148.88;100.00;-17125.47;5014100;28;20021;-74
2023/09/13 02:55:42;;;;;;;43.40;30.98;;;;;;;-148.88;100.00;-17125.47;5014041;28;20468;-74
2023/09/13 02:58:08;;;;;;;48.22;31.98;;;;;;;-148.88;100.00;-17125.47;5014194;28;20072;-74
2023/09/13 03:00:34;;;;;;;44.85;31.55;;;;;;;-148.88;100.00;-17125.47;5029041;28;20439;-74
2023/09/13 03:02:59;;;;;;;46.90;31.40;;;;;;;-148.88;100.00;-17125.47;5013941;28;20096;-74
2023/09/13 03:05:25;;;;;;;48.78;31.38;;;;;;;-148.88;100.00;-17125.47;5014045;28;20018;-74
2023/09/13 03:07:51;;;;;;;42.88;31.35;;;;;;;-148.88;100.00;-17125.47;5013705;28;20028;-75
2023/09/13 03:10:16;;;;;;;44.40;30.10;;;;;;;-148.88;100.00;-17125.47;5013694;28;20113;-74
2023/09/13 03:12:42;;;;;;;42.20;29.63;;;;;;;-148.88;100.00;-17125.47;5013576;28;20153;-74
2023/09/13 03:15:07;;;;;;;46.22;30.08;;;;;;;-148.88;100.00;-17125.47;5013591;28;20057;-75
2023/09/13 03:17:33;;;;;;;40.35;28.25;;;;;;;-148.88;100.00;-17125.47;5013527;28;20109;-74
2023/09/13 03:19:58;;;;;;;35.70;26.27;;;;;;;-148.88;100.00;-17125.47;5013580;28;20391;-75
2023/09/13 03:22:23;;;;;;;37.40;26.80;;;;;;;-148.88;100.00;-17125.47;5013426;28;20025;-74
2023/09/13 03:24:49;;;;;;;34.40;25.27;;;;;;;-148.88;100.00;-17125.47;5013590;28;20484;-75
2023/09/13 03:27:14;;;;;;;38.95;26.98;;;;;;;-148.88;100.00;-17125.47;5013729;28;20018;-74
2023/09/13 03:29:40;;;;;;;36.42;26.17;;;;;;;-148.88;100.00;-17125.47;5013311;28;20545;-74
2023/09/13 03:32:06;;;;;;;35.58;25.75;;;;;;;-148.88;100.00;-17125.47;5013224;28;20079;-74
2023/09/13 03:34:32;;;;;;;35.05;26.30;;;;;;;-148.88;100.00;-17125.47;5013344;28;20056;-74
2023/09/13 03:36:57;;;;;;;29.08;22.42;;;;;;;-148.88;100.00;-17125.47;5013184;28;20109;-74
2023/09/13 03:39:25;;;;;;;28.67;21.92;;;;;;;-148.88;100.00;-17125.47;5013085;28;20451;-74
2023/09/13 03:41:51;;;;;;;29.48;21.48;;;;;;;-148.88;100.00;-17125.47;5013061;28;20034;-75
2023/09/13 03:44:16;;;;;;;29.08;21.95;;;;;;;-148.88;100.00;-17125.47;5013253;28;20088;-74
2023/09/13 03:46:42;;;;;;;29.33;22.50;;;;;;;-148.88;100.00;-17125.47;5012914;28;20026;-74
2023/09/13 03:49:07;;;;;;;27.88;20.75;;;;;;;-148.88;100.00;-17125.47;5013034;28;20022;-74
2023/09/13 03:51:32;;;;;;;24.95;19.25;;;;;;;-148.88;100.00;-17125.47;5013094;28;20018;-75
2023/09/13 03:53:58;;;;;;;24.23;19.10;;;;;;;-148.88;100.00;-17125.47;5013221;28;20022;-74
2023/09/13 03:56:23;;;;;;;26.58;19.50;;;;;;;-148.88;100.00;-17125.47;5012713;28;20499;-74
2023/09/13 03:58:49;;;;;;;28.60;21.58;;;;;;;-148.88;100.00;-17125.47;5012851;28;20120;-74
2023/09/13 04:01:17;;;;;;;29.17;21.27;;;;;;;-148.88;100.00;-17125.47;5072297;23;20049;-82
2023/09/13 04:03:42;;;;;;;28.23;20.75;;;;;;;-148.88;100.00;-17125.47;5034673;28;20101;-85
2023/09/13 04:06:08;;;;;;;33.05;22.73;;;;;;;-148.88;100.00;-17125.47;5034668;28;20017;-85
2023/09/13 04:08:34;;;;;;;30.60;23.10;;;;;;;-148.88;100.00;-17125.47;5034864;28;20021;-84
2023/09/13 04:11:09;;;;;;;29.58;22.35;;;;;;;-148.88;100.00;-17125.47;5036109;28;20021;-86
2023/09/13 04:13:35;;;;;;;33.28;23.83;;;;;;;-148.88;100.00;-17125.47;5036274;28;20025;-85
2023/09/13 04:16:05;;;;;;;32.42;22.00;;;;;;;-148.88;100.00;-17125.47;5034559;28;20021;-86
2023/09/13 04:18:30;;;;;;;30.02;22.08;;;;;;;-148.88;100.00;-17125.47;5035571;28;20021;-85
2023/09/13 04:20:56;;;;;;;28.30;21.60;;;;;;;-148.88;100.00;-17125.47;5035659;28;20032;-85
2023/09/13 04:23:25;;;;;;;29.17;22.88;;;;;;;-148.88;100.00;-17125.47;5040614;28;20021;-84
2023/09/13 04:26:00;;;;;;;29.42;23.45;;;;;;;-148.88;100.00;-17125.47;5044449;28;20048;-84
2023/09/13 04:28:38;;;;;;;30.70;22.85;;;;;;;-148.88;100.00;-17125.47;5035828;28;20056;-85
2023/09/13 04:31:04;;;;;;;29.98;22.50;;;;;;;-148.88;100.00;-17125.47;5036383;28;20021;-85
2023/09/13 04:33:56;;;;;;;27.95;21.88;;;;;;;-148.88;100.00;-17125.47;5035440;28;20030;-85
2023/09/13 04:36:23;;;;;;;30.08;23.23;;;;;;;-148.88;100.00;-17125.47;5035673;28;20041;-83
2023/09/13 04:38:49;;;;;;;29.17;21.48;;;;;;;-148.88;100.00;-17125.47;5036660;28;20041;-83
2023/09/13 04:41:32;;;;;;;28.80;22.13;;;;;;;-148.88;100.00;-17125.47;5034685;28;20456;-82
2023/09/13 04:44:17;;;;;;;25.90;20.85;;;;;;;-148.88;100.00;-17125.47;5034073;28;20341;-83
2023/09/13 04:46:50;;;;;;;32.10;23.58;;;;;;;-148.88;100.00;-17125.47;5038002;28;20025;-83
2023/09/13 04:49:44;;;;;;;32.13;22.73;;;;;;;-148.88;100.00;-17125.47;5034351;28;20044;-85
2023/09/13 04:52:12;;;;;;;26.13;19.67;;;;;;;-148.88;100.00;-17125.47;5035339;22;20045;-76
2023/09/13 04:54:37;;;;;;;28.45;22.00;;;;;;;-148.88;100.00;-17125.47;5030382;28;20030;-75
2023/09/13 04:57:03;;;;;;;29.73;21.27;;;;;;;-148.88;100.00;-17125.47;5030485;28;20036;-75
2023/09/13 04:59:42;;;;;;;32.42;22.08;;;;;;;-148.88;100.00;-17125.47;5032385;28;20569;-75
2023/09/13 05:02:07;;;;;;;27.60;21.45;;;;;;;-148.88;100.00;-17125.47;5031966;28;20453;-75
2023/09/13 05:04:32;;;;;;;34.00;23.77;;;;;;;-148.88;100.00;-17125.47;5032062;28;20121;-75
2023/09/13 05:06:58;;;;;;;31.10;21.90;;;;;;;-148.88;100.00;-17125.47;5031666;28;20028;-75
2023/09/13 05:09:23;;;;;;;30.88;23.77;;;;;;;-148.88;100.00;-17125.47;5031973;28;20033;-74
2023/09/13 05:11:48;;;;;;;29.27;22.33;;;;;;;-148.88;100.00;-17125.47;5032127;28;20088;-75
2023/09/13 05:14:14;;;;;;;27.67;21.58;;;;;;;-148.88;100.00;-17125.47;5031778;28;20083;-75
2023/09/13 05:16:40;;;;;;;30.75;22.85;;;;;;;-148.88;100.00;-17125.47;5031543;28;20099;-75
2023/09/13 05:19:06;;;;;;;30.95;22.63;;;;;;;-148.88;100.00;-17125.47;5031968;28;20057;-75
2023/09/13 05:21:31;;;;;;;33.85;23.08;;;;;;;-148.88;100.00;-17125.47;5030289;28;20045;-75
2023/09/13 05:23:56;;;;;;;30.55;22.73;;;;;;;-148.88;100.00;-17125.47;5030483;28;20108;-74
2023/09/13 05:26:22;;;;;;;35.85;23.83;;;;;;;-148.88;100.00;-17125.47;5031730;28;20171;-75
2023/09/13 05:28:47;;;;;;;36.90;24.98;;;;;;;-148.88;100.00;-17125.47;5031731;28;20076;-75
2023/09/13 05:31:14;;;;;;;32.25;23.13;;;;;;;-148.88;100.00;-17125.47;5031504;28;20032;-75
2023/09/13 05:33:39;;;;;;;36.58;24.52;;;;;;;-148.88;100.00;-17125.47;5030566;28;20504;-75
2023/09/13 05:36:09;;;;;;;38.10;25.85;;;;;;;-148.88;100.00;-17125.47;5035019;28;20488;-75
2023/09/13 05:38:34;;;;;;;36.47;26.55;;;;;;;-148.88;100.00;-17125.47;5035416;28;20475;-75
2023/09/13 05:41:07;;;;;;;41.38;28.52;;;;;;;-148.88;100.00;-17125.47;5033860;28;20035;-75
2023/09/13 05:43:33;;;;;;;35.80;26.98;;;;;;;-148.88;100.00;-17125.47;5033942;28;20033;-76
2023/09/13 05:45:59;;;;;;;39.25;28.40;;;;;;;-148.88;100.00;-17125.47;5035400;28;20026;-76
2023/09/13 05:48:24;;;;;;;41.88;29.30;;;;;;;-148.88;100.00;-17125.47;5036250;28;20033;-75
2023/09/13 05:50:50;;;;;;;40.15;27.67;;;;;;;-148.88;100.00;-17125.47;5035501;28;20484;-76
2023/09/13 05:53:18;;;;;;;40.25;28.83;;;;;;;-148.88;100.00;-17125.47;5034963;28;20415;-76
2023/09/13 05:55:43;;;;;;;44.38;29.33;;;;;;;-148.88;100.00;-17125.47;5034764;28;20018;-76
2023/09/13 05:58:09;;;;;;;45.10;29.23;;;;;;;-148.88;100.00;-17125.47;5034794;28;20028;-76
2023/09/13 06:00:35;;;;;;;42.05;28.05;;;;;;;-148.88;100.00;-17125.47;5033478;28;20415;-76
2023/09/13 06:03:00;;;;;;;42.38;27.92;;;;;;;-148.88;100.00;-17125.47;5036664;28;20103;-76
2023/09/13 06:05:26;;;;;;;38.47;27.45;;;;;;;-148.88;100.00;-17125.47;5033427;28;20028;-76
2023/09/13 06:07:51;;;;;;;41.50;26.90;;;;;;;-148.88;100.00;-17125.47;5033232;28;20029;-76
2023/09/13 06:10:17;;;;;;;43.35;27.77;;;;;;;-148.88;100.00;-17125.47;5033378;28;20029;-76
2023/09/13 06:12:45;;;;;;;40.67;27.00;;;;;;;-148.88;100.00;-17125.47;5033191;28;20107;-75
2023/09/13 06:15:11;;;;;;;41.20;28.05;;;;;;;-148.88;100.00;-17125.47;5023664;28;20050;-74
2023/09/13 06:17:37;;;;;;;40.30;26.35;;;;;;;-148.88;100.00;-17125.47;5012113;28;20022;-75
2023/09/13 06:20:05;;;;;;;40.83;27.45;;;;;;;-148.88;100.00;-17125.47;5013646;28;20072;-75
2023/09/13 06:22:32;;;;;;;42.08;27.58;;;;;;;-148.88;100.00;-17125.47;5014629;28;20109;-76
2023/09/13 06:24:58;;;;;;;39.30;27.95;;;;;;;-148.88;100.00;-17125.47;5014612;28;20579;-75
2023/09/13 06:27:24;;;;;;;39.47;27.77;;;;;;;-148.88;100.00;-17125.47;5014464;28;20032;-75
2023/09/13 06:29:49;;;;;;;39.95;28.10;;;;;;;-148.88;100.00;-17125.47;5014175;28;20113;-75
2023/09/13 06:32:14;;;;;;;37.38;26.88;;;;;;;-148.88;100.00;-17125.47;5014239;28;20024;-75
2023/09/13 06:34:40;;;;;;;42.15;28.23;;;;;;;-148.88;100.00;-17125.47;5014290;28;20377;-75
2023/09/13 06:37:05;;;;;;;44.90;28.98;;;;;;;-148.88;100.00;-17125.47;5014018;28;20060;-75
2023/09/13 06:39:31;;;;;;;42.63;29.65;;;;;;;-148.88;100.00;-17125.47;5014418;28;20449;-75
2023/09/13 06:41:56;;;;;;;35.17;25.20;;;;;;;-148.88;100.00;-17125.47;5012922;28;20025;-75
2023/09/13 06:44:21;;;;;;;32.72;23.45;;;;;;;-148.88;100.00;-17125.47;5013928;28;20480;-75
2023/09/13 06:46:47;;;;;;;27.65;21.40;;;;;;;-148.88;100.00;-17125.47;5014256;28;20406;-76
2023/09/13 06:49:12;;;;;;;27.02;20.67;;;;;;;-148.88;100.00;-17125.47;5012631;28;20049;-75
2023/09/13 06:51:38;;;;;;;31.15;22.23;;;;;;;-148.88;100.00;-17125.47;5014255;28;20120;-76
2023/09/13 06:54:03;;;;;;;34.78;24.23;;;;;;;-148.88;100.00;-17125.47;5012460;28;20080;-75
2023/09/13 06:56:29;;;;;;;33.35;24.20;;;;;;;-148.88;100.00;-17125.47;5012417;28;20484;-75
2023/09/13 06:58:54;;;;;;;36.10;23.15;;;;;;;-148.88;100.00;-17125.47;5013883;28;20022;-75
2023/09/13 07:01:19;;;;;;;29.45;21.48;;;;;;;-148.88;100.00;-17125.47;5013950;28;20524;-75
2023/09/13 07:03:45;;;;;;;28.23;21.42;;;;;;;-148.88;100.00;-17125.47;5014130;28;20040;-75
2023/09/13 07:06:13;;;;;;;28.48;20.67;;;;;;;-148.88;100.00;-17125.47;5012437;28;20021;-76
2023/09/13 07:08:39;;;;;;;27.80;20.25;;;;;;;-148.88;100.00;-17125.47;5013978;28;20143;-76
2023/09/13 07:11:04;;;;;;;26.67;20.23;;;;;;;-148.88;100.00;-17125.47;5013560;28;20451;-75
2023/09/13 07:13:30;;;;;;;26.35;20.05;;;;;;;-148.88;100.00;-17125.47;5013309;28;20507;-75
2023/09/13 07:15:55;;;;;;;24.42;18.25;;;;;;;-148.88;100.00;-17125.47;5013284;28;20032;-76
2023/09/13 07:18:20;;;;;;;26.02;18.70;;;;;;;-148.88;100.00;-17125.47;5011998;28;20022;-76
2023/09/13 07:20:46;;;;;;;25.45;17.50;;;;;;;-148.88;100.00;-17125.47;5013643;28;20056;-75
2023/09/13 07:23:11;;;;;;;24.73;17.63;;;;;;;-148.88;100.00;-17125.47;5012043;28;20403;-76
2023/09/13 07:25:36;;;;;;;25.45;16.98;;;;;;;-148.88;100.00;-17125.47;5013278;28;20026;-75
2023/09/13 07:28:02;;;;;;;22.80;16.90;;;;;;;-148.88;100.00;-17125.47;5012802;28;20071;-75
2023/09/13 07:30:28;;;;;;;22.75;16.75;;;;;;;-148.88;100.00;-17125.47;5012852;28;20058;-75
2023/09/13 07:32:53;;;;;;;23.75;16.40;;;;;;;-148.88;100.00;-17125.47;5013144;28;20050;-75
2023/09/13 07:35:20;;;;;;;23.85;15.77;;;;;;;-148.88;100.00;-17125.47;5013019;28;20126;-76
2023/09/13 07:37:46;;;;;;;19.17;14.50;;;;;;;-148.88;100.00;-17125.47;5011576;28;20121;-75
2023/09/13 07:40:11;;;;;;;19.80;13.60;;;;;;;-148.88;100.00;-17125.47;5012906;28;20071;-76
2023/09/13 07:42:37;;;;;;;17.35;13.43;;;;;;;-148.88;100.00;-17125.47;5012840;28;20018;-75
2023/09/13 07:45:02;;;;;;;16.92;13.70;;;;;;;-148.88;100.00;-17125.47;5012898;28;20358;-76
2023/09/13 07:47:28;;;;;;;15.63;12.30;;;;;;;-148.88;100.00;-17125.47;5012830;28;20030;-76
2023/09/13 07:49:54;;;;;;;16.75;13.18;;;;;;;-148.88;100.00;-17125.47;5012489;28;20060;-75
2023/09/13 07:52:20;;;;;;;16.27;12.35;;;;;;;-148.88;100.00;-17125.47;5010435;28;20030;-75
2023/09/13 07:54:45;;;;;;;14.30;11.35;;;;;;;-148.88;100.00;-17125.47;5010848;28;20052;-74
2023/09/13 07:57:11;;;;;;;15.35;11.93;;;;;;;-148.88;100.00;-17125.47;5010274;28;20061;-75
2023/09/13 07:59:36;;;;;;;15.98;11.90;;;;;;;-148.88;100.00;-17125.47;5031699;28;20391;-75
2023/09/13 08:02:02;;;;;;;15.60;12.55;;;;;;;-148.88;100.00;-17125.47;5032520;28;20040;-75
2023/09/13 08:04:27;;;;;;;15.68;11.05;;;;;;;-148.88;100.00;-17125.47;5032385;28;20021;-75
2023/09/13 08:06:52;;;;;;;14.30;11.02;;;;;;;-148.88;100.00;-17125.47;5032387;28;20026;-75
2023/09/13 08:09:18;;;;;;;12.77;9.68;;;;;;;-148.88;100.00;-17125.47;5032602;28;20382;-75
2023/09/13 08:11:46;;;;;;;11.27;8.82;;;;;;;-148.88;100.00;-17125.47;5032362;28;20112;-75
2023/09/13 08:14:12;;;;;;;10.20;8.07;;;;;;;-148.88;100.00;-17125.47;5032803;28;20021;-76
2023/09/13 08:16:39;;;;;;;9.10;6.47;;;;;;;-148.88;100.00;-17125.47;5031620;28;20145;-75
2023/09/13 08:19:05;;;;;;;7.38;5.55;;;;;;;-148.88;100.00;-17125.47;5033019;28;20456;-76
2023/09/13 08:21:30;;;;;;;6.82;5.72;;;;;;;-148.88;100.00;-17125.47;5031284;28;20025;-75
2023/09/13 08:23:56;;;;;;;5.65;4.43;;;;;;;-148.88;100.00;-17125.47;5032786;28;20025;-76
2023/09/13 08:26:22;;;;;;;4.95;4.03;;;;;;;-148.88;100.00;-17125.47;5031165;28;20479;-76
2023/09/13 08:28:50;;;;;;;5.20;4.00;;;;;;;-148.88;100.00;-17125.47;5032570;28;20053;-75
2023/09/13 08:31:15;;;;;;;4.70;3.75;;;;;;;-148.88;100.00;-17125.47;5032736;28;20029;-75
2023/09/13 08:33:40;;;;;;;4.40;3.35;;;;;;;-148.88;100.00;-17125.47;5032347;28;20028;-75
2023/09/13 08:36:07;;;;;;;4.65;3.58;;;;;;;-148.88;100.00;-17125.47;5032118;28;20025;-75
2023/09/13 08:38:35;;;;;;;3.97;3.25;;;;;;;-148.88;100.00;-17125.47;5032361;28;20048;-75
2023/09/13 08:41:02;;;;;;;4.05;3.33;;;;;;;-148.88;100.00;-17125.47;5030954;28;20025;-75
2023/09/13 08:43:28;;;;;;;4.78;3.75;;;;;;;-148.88;100.00;-17125.47;5031073;28;20045;-76
2023/09/13 08:45:54;;;;;;;4.60;4.00;;;;;;;-148.88;100.00;-17125.47;5032349;28;20049;-75
2023/09/13 08:48:21;;;;;;;5.28;4.32;;;;;;;-148.88;100.00;-17125.47;5032342;28;20048;-76
2023/09/13 08:50:50;;;;;;;5.43;4.43;;;;;;;-148.88;100.00;-17125.47;5032361;28;20025;-76
2023/09/13 08:53:17;;;;;;;6.20;4.65;;;;;;;-148.88;100.00;-17125.47;5032402;28;20086;-76
2023/09/13 08:55:46;;;;;;;5.28;3.60;;;;;;;-148.88;100.00;-17125.47;5032338;28;20506;-77
2023/09/13 08:58:11;;;;;;;4.72;3.72;;;;;;;-148.88;100.00;-17125.47;5030824;28;20025;-75
2023/09/13 09:00:41;;;;;;;4.80;4.30;;;;;;;-148.88;100.00;-17125.47;5030868;28;20028;-75
2023/09/13 09:03:11;;;;;;;4.35;3.70;;;;;;;-148.88;100.00;-17125.47;5032445;28;20029;-76
2023/09/13 09:05:37;;;;;;;5.05;3.83;;;;;;;-148.88;100.00;-17125.47;5030814;28;20582;-75
2023/09/13 09:08:04;;;;;;;5.78;4.28;;;;;;;-148.88;100.00;-17125.47;5031678;28;20487;-76
2023/09/13 09:10:31;;;;;;;5.05;3.67;;;;;;;-148.88;100.00;-17125.47;5034612;28;20037;-75
2023/09/13 09:12:58;;;;;;;5.18;3.70;;;;;;;-148.88;100.00;-17125.47;5034526;28;20083;-75
2023/09/13 09:15:25;;;;;;;5.10;3.70;;;;;;;-148.88;100.00;-17125.47;5034440;28;20399;-75
2023/09/13 09:17:54;;;;;;;5.10;3.97;;;;;;;-148.88;100.00;-17125.47;5036067;28;20471;-75
2023/09/13 09:20:20;;;;;;;4.85;3.65;;;;;;;-148.88;100.00;-17125.47;5035568;28;20028;-75
2023/09/13 09:22:46;;;;;;;5.10;3.72;;;;;;;-148.88;100.00;-17125.47;5034030;28;20038;-75
2023/09/13 09:25:13;;;;;;;4.57;3.33;;;;;;;-148.88;100.00;-17125.47;5035191;28;20013;-75
2023/09/13 09:27:40;;;;;;;4.53;2.85;;;;;;;-148.88;100.00;-17125.47;5033930;28;20053;-75
2023/09/13 09:30:07;;;;;;;3.50;3.20;;;;;;;-148.88;100.00;-17125.47;5035422;28;20032;-75
2023/09/13 09:32:38;;;;;;;6.47;3.40;;;;;;;-148.88;100.00;-17125.47;5035392;28;20108;-75
2023/09/13 09:35:05;;;;;;;4.25;3.00;;;;;;;-148.88;100.00;-17125.47;5033843;28;20032;-75
2023/09/13 09:37:32;;;;;;;3.97;2.97;;;;;;;-148.88;100.00;-17125.47;5035563;28;20108;-75
2023/09/13 09:39:58;;;;;;;4.97;3.10;;;;;;;-148.88;100.00;-17125.47;5035562;28;20025;-75
2023/09/13 09:42:25;;;;;;;4.35;3.30;;;;;;;-148.88;100.00;-17125.47;5034909;28;20078;-75
2023/09/13 09:44:52;;;;;;;10.40;5.80;;;;;;;-148.88;100.00;-17125.47;5035008;28;20675;-75
2023/09/13 09:47:18;;;;;;;12.15;8.27;;;;;;;-148.88;100.00;-17125.47;5035008;28;20153;-75
2023/09/13 09:49:49;;;;;;;11.55;6.47;;;;;;;-148.88;100.00;-17125.47;5034828;28;20021;-75
2023/09/13 09:52:16;;;;;;;4.85;3.25;;;;;;;-148.88;100.00;-17125.47;5033339;28;20048;-75
2023/09/13 09:54:53;;;;;;;7.32;4.88;;;;;;;-148.88;100.00;-17125.47;5035027;28;20029;-75
2023/09/13 09:57:23;;;;;;;6.40;3.75;;;;;;;-148.88;100.00;-17125.47;5033332;28;20403;-76
2023/09/13 09:59:50;;;;;;;5.30;2.90;;;;;;;-148.88;100.00;-17125.47;5034812;28;20026;-75
2023/09/13 10:02:15;;;;;;;5.43;3.20;;;;;;;-148.88;100.00;-17125.47;5034643;28;20030;-75
2023/09/13 10:04:45;;;;;;;5.50;3.70;;;;;;;-148.88;100.00;-17125.47;5033571;28;20063;-76
2023/09/13 10:07:11;;;;;;;7.10;4.80;;;;;;;-148.88;100.00;-17125.47;5034811;28;20349;-75
2023/09/13 10:09:43;;;;;;;8.38;5.50;;;;;;;-148.88;100.00;-17125.47;5034517;28;20026;-76
2023/09/13 10:12:09;;;;;;;7.68;6.22;;;;;;;-148.88;100.00;-17125.47;5034745;28;20029;-75
2023/09/13 10:14:37;;;;;;;10.55;8.23;;;;;;;-148.88;100.00;-17125.47;5034314;28;20061;-75
2023/09/13 10:17:04;;;;;;;12.18;8.90;;;;;;;-148.88;100.00;-17125.47;5034541;28;20033;-75
2023/09/13 10:19:31;;;;;;;11.95;9.73;;;;;;;-148.88;100.00;-17125.47;5032197;28;20134;-75
2023/09/13 10:21:57;;;;;;;12.43;9.00;;;;;;;-148.88;100.00;-17125.47;5034302;28;20025;-76
2023/09/13 10:24:25;;;;;;;15.27;9.90;;;;;;;-148.88;100.00;-17125.47;5032990;28;20028;-75
2023/09/13 10:26:52;;;;;;;14.75;8.95;;;;;;;-148.88;100.00;-17125.47;5032639;28;20049;-75
2023/09/13 10:29:19;;;;;;;10.85;6.95;;;;;;;-148.88;100.00;-17125.47;5032686;28;20403;-75
2023/09/13 10:31:47;;;;;;;10.30;6.60;;;;;;;-148.88;100.00;-17125.47;5034442;28;20108;-75
2023/09/13 10:34:25;;;;;;;11.48;5.95;;;;;;;-148.88;100.00;-17125.47;5032553;28;20036;-75
2023/09/13 10:37:05;;;;;;;9.80;5.00;;;;;;;-148.88;100.00;-17125.47;5033796;28;20517;-75
2023/09/13 10:39:35;;;;;;;10.07;4.68;;;;;;;-148.88;100.00;-17125.47;5032596;28;20116;-75
2023/09/13 10:42:07;;;;;;;11.32;4.57;;;;;;;-148.88;100.00;-17125.47;5033820;28;20024;-76
2023/09/13 10:44:37;;;;;;;10.75;4.28;;;;;;;-148.88;100.00;-17125.47;5034049;28;20025;-75
2023/09/13 10:47:07;;;;;;;8.93;3.25;;;;;;;-148.88;100.00;-17125.47;5034335;28;20148;-76
2023/09/13 10:49:36;;;;;;;7.88;2.80;;;;;;;-148.88;100.00;-17125.47;5034338;28;20112;-76
2023/09/13 10:52:03;;;;;;;6.93;3.00;;;;;;;-148.88;100.00;-17125.47;5033706;28;20041;-75
2023/09/13 10:54:30;;;;;;;6.85;2.60;;;;;;;-148.88;100.00;-17125.47;5033619;28;20103;-75
2023/09/13 10:56:56;;;;;;;7.05;2.45;;;;;;;-148.88;100.00;-17125.47;5033500;28;20116;-75